Etusivu
METAR-TAF:

METAR-TAF

Lentoasemat :

Pago Pago, Yhdysvaltain pienet erillissaaret

Leveyspiiri: 14-20S, Pituuspiiri: 170-43W, korkeus merenpinnasta: 3 m

Tämänhetkinen sää

Tämä raportti tehtiin 26 minuuttia sitten, kello 00.50 UTC
Tuuli 12 kn idästä/kaakosta
Lämpötila 31°C
Kosteus 71%
Ilmanpaine 1011 hPa
Näkyvyys: 19.3 km
Hajanaisia pilviä 1600 ft:n korkeudessa, Kasvava cumulus-pilvi.
Hajonneita pilviä 3500 ft:n korkeudessa
sadekuuroja näköpiirissä

METAR: NSTU 190050Z 12012KT 12SM VCSH SCT016TCU BKN035 31/25 A2985 RMK VCSH S TCU S-W-N SLP108 T03050251

Aika: 14:16 (01:16 UTC)

Sääennuste

Tämä raportti tehtiin 1 tunti ja 37 minuuttia sitten, kello 23.39 UTC
Ennuste voimassa 19. päivästä klo 00 UTC - 19. päivään klo 24 UTC
Tuuli 11 kn kaakosta
Näkyvyys: 10 km
Hajanaisia pilviä 1800 ft:n korkeudessa
Hajanaisia pilviä 4000 ft:n korkeudessa
Hajonneita pilviä 10000 ft:n korkeudessa

TAF: NSTU 182339Z 1900/1924 13011KT P6SM SCT018 SCT040 BKN100

Säähavainnot ja -ennusteet yli 4000 lentoasemalta (METAR- ja TAF-raportit).

Käytössä olevat sääasemat on merkitty karttaan keltaisilla ja punaisilla pisteillä.

Aseta hiiri pisteen päälle nähdäksesi sääaseman nimen.

Klikkaa sitten nähdäksesi säähavainnot ja -ennusteet.

Kartan vaihtaminen: klikkaa mustalla rastilla varustettuja vihreitä pisteitä, niin voit zoomata sisään; viivalla varustettua vihreää pistettä, niin voit zoomata ulos tai vihreitä nuolia, niin pääset viereisille kartoille.


METAR-TAF: